sensor_id;sensor_type;location;lat;lon;timestamp;P1;durP1;ratioP1;P2;durP2;ratioP2
54384;SDS011;40284;52.878;5.998;2023-09-30T00:02:18;13.30;;;3.97;;
54384;SDS011;40284;52.878;5.998;2023-09-30T00:04:44;15.38;;;6.18;;
54384;SDS011;40284;52.878;5.998;2023-09-30T00:07:10;11.48;;;3.88;;
54384;SDS011;40284;52.878;5.998;2023-09-30T00:09:36;15.40;;;3.55;;
54384;SDS011;40284;52.878;5.998;2023-09-30T00:12:02;16.98;;;4.85;;
54384;SDS011;40284;52.878;5.998;2023-09-30T00:14:29;16.30;;;5.07;;
54384;SDS011;40284;52.878;5.998;2023-09-30T00:16:55;13.25;;;4.65;;
54384;SDS011;40284;52.878;5.998;2023-09-30T00:19:21;16.20;;;4.90;;
54384;SDS011;40284;52.878;5.998;2023-09-30T00:21:48;14.73;;;4.35;;
54384;SDS011;40284;52.878;5.998;2023-09-30T00:24:14;11.82;;;3.88;;
54384;SDS011;40284;52.878;5.998;2023-09-30T00:26:40;12.82;;;4.32;;
54384;SDS011;40284;52.878;5.998;2023-09-30T00:29:06;8.73;;;3.15;;
54384;SDS011;40284;52.878;5.998;2023-09-30T00:31:32;13.20;;;4.38;;
54384;SDS011;40284;52.878;5.998;2023-09-30T00:33:59;18.45;;;3.90;;
54384;SDS011;40284;52.878;5.998;2023-09-30T00:36:25;15.73;;;4.47;;
54384;SDS011;40284;52.878;5.998;2023-09-30T00:38:51;11.82;;;3.80;;
54384;SDS011;40284;52.878;5.998;2023-09-30T00:41:17;10.43;;;3.55;;
54384;SDS011;40284;52.878;5.998;2023-09-30T00:43:45;13.57;;;3.72;;
54384;SDS011;40284;52.878;5.998;2023-09-30T00:48:43;12.40;;;3.88;;
54384;SDS011;40284;52.878;5.998;2023-09-30T00:51:10;16.00;;;3.72;;
54384;SDS011;40284;52.878;5.998;2023-09-30T00:53:36;9.90;;;3.58;;
54384;SDS011;40284;52.878;5.998;2023-09-30T00:56:03;9.50;;;3.50;;
54384;SDS011;40284;52.878;5.998;2023-09-30T00:58:29;13.05;;;3.90;;
54384;SDS011;40284;52.878;5.998;2023-09-30T01:00:56;14.93;;;4.50;;
54384;SDS011;40284;52.878;5.998;2023-09-30T01:03:22;12.45;;;4.18;;
54384;SDS011;40284;52.878;5.998;2023-09-30T01:05:48;8.82;;;4.15;;
54384;SDS011;40284;52.878;5.998;2023-09-30T01:08:15;14.05;;;4.03;;
54384;SDS011;40284;52.878;5.998;2023-09-30T01:10:42;11.77;;;4.50;;
54384;SDS011;40284;52.878;5.998;2023-09-30T01:13:08;14.30;;;4.15;;
54384;SDS011;40284;52.878;5.998;2023-09-30T01:15:34;14.52;;;4.82;;
54384;SDS011;40284;52.878;5.998;2023-09-30T01:18:02;14.93;;;4.68;;
54384;SDS011;40284;52.878;5.998;2023-09-30T01:20:28;16.98;;;5.88;;
54384;SDS011;40284;52.878;5.998;2023-09-30T01:22:54;19.60;;;5.40;;
54384;SDS011;40284;52.878;5.998;2023-09-30T01:25:23;15.18;;;5.30;;
54384;SDS011;40284;52.878;5.998;2023-09-30T01:27:49;17.35;;;6.30;;
54384;SDS011;40284;52.878;5.998;2023-09-30T01:30:16;15.38;;;6.25;;
54384;SDS011;40284;52.878;5.998;2023-09-30T01:32:43;14.15;;;5.93;;
54384;SDS011;40284;52.878;5.998;2023-09-30T01:35:09;16.52;;;4.90;;
54384;SDS011;40284;52.878;5.998;2023-09-30T01:37:35;11.35;;;4.10;;
54384;SDS011;40284;52.878;5.998;2023-09-30T01:40:02;13.73;;;4.10;;
54384;SDS011;40284;52.878;5.998;2023-09-30T01:42:33;18.65;;;4.07;;
54384;SDS011;40284;52.878;5.998;2023-09-30T01:44:59;14.15;;;4.65;;
54384;SDS011;40284;52.878;5.998;2023-09-30T01:47:25;15.05;;;4.68;;
54384;SDS011;40284;52.878;5.998;2023-09-30T01:49:51;16.58;;;5.65;;
54384;SDS011;40284;52.878;5.998;2023-09-30T01:52:17;15.50;;;7.50;;
54384;SDS011;40284;52.878;5.998;2023-09-30T01:54:43;17.30;;;6.22;;
54384;SDS011;40284;52.878;5.998;2023-09-30T01:57:09;16.45;;;5.68;;
54384;SDS011;40284;52.878;5.998;2023-09-30T01:59:35;19.38;;;5.57;;
54384;SDS011;40284;52.878;5.998;2023-09-30T02:02:01;15.00;;;5.47;;
54384;SDS011;40284;52.878;5.998;2023-09-30T02:04:28;19.02;;;5.70;;
54384;SDS011;40284;52.878;5.998;2023-09-30T02:06:54;17.58;;;7.10;;
54384;SDS011;40284;52.878;5.998;2023-09-30T02:09:20;16.75;;;6.60;;
54384;SDS011;40284;52.878;5.998;2023-09-30T02:11:47;18.60;;;6.65;;
54384;SDS011;40284;52.878;5.998;2023-09-30T02:14:13;19.35;;;8.70;;
54384;SDS011;40284;52.878;5.998;2023-09-30T02:16:39;22.27;;;7.65;;
54384;SDS011;40284;52.878;5.998;2023-09-30T02:19:05;22.30;;;6.90;;
54384;SDS011;40284;52.878;5.998;2023-09-30T02:21:31;19.38;;;7.35;;
54384;SDS011;40284;52.878;5.998;2023-09-30T02:23:58;15.75;;;6.97;;
54384;SDS011;40284;52.878;5.998;2023-09-30T02:26:24;23.77;;;8.25;;
54384;SDS011;40284;52.878;5.998;2023-09-30T02:28:52;20.17;;;7.55;;
54384;SDS011;40284;52.878;5.998;2023-09-30T02:31:19;24.30;;;7.97;;
54384;SDS011;40284;52.878;5.998;2023-09-30T02:33:45;12.75;;;6.43;;
54384;SDS011;40284;52.878;5.998;2023-09-30T02:36:12;20.73;;;6.90;;
54384;SDS011;40284;52.878;5.998;2023-09-30T02:38:38;19.75;;;6.45;;
54384;SDS011;40284;52.878;5.998;2023-09-30T02:41:04;16.90;;;6.60;;
54384;SDS011;40284;52.878;5.998;2023-09-30T02:43:30;16.27;;;7.28;;
54384;SDS011;40284;52.878;5.998;2023-09-30T02:45:57;19.58;;;6.20;;
54384;SDS011;40284;52.878;5.998;2023-09-30T02:48:23;17.20;;;6.45;;
54384;SDS011;40284;52.878;5.998;2023-09-30T02:50:49;18.70;;;6.70;;
54384;SDS011;40284;52.878;5.998;2023-09-30T02:53:15;19.67;;;7.18;;
54384;SDS011;40284;52.878;5.998;2023-09-30T02:55:41;17.75;;;6.88;;
54384;SDS011;40284;52.878;5.998;2023-09-30T02:58:08;17.75;;;7.03;;
54384;SDS011;40284;52.878;5.998;2023-09-30T03:00:34;16.40;;;7.03;;
54384;SDS011;40284;52.878;5.998;2023-09-30T03:03:01;15.10;;;6.13;;
54384;SDS011;40284;52.878;5.998;2023-09-30T03:05:27;15.32;;;6.97;;
54384;SDS011;40284;52.878;5.998;2023-09-30T03:07:55;11.48;;;5.22;;
54384;SDS011;40284;52.878;5.998;2023-09-30T03:10:22;18.45;;;6.43;;
54384;SDS011;40284;52.878;5.998;2023-09-30T03:12:54;16.38;;;6.15;;
54384;SDS011;40284;52.878;5.998;2023-09-30T03:15:21;15.40;;;6.43;;
54384;SDS011;40284;52.878;5.998;2023-09-30T03:17:47;21.10;;;6.13;;
54384;SDS011;40284;52.878;5.998;2023-09-30T03:20:14;20.05;;;6.30;;
54384;SDS011;40284;52.878;5.998;2023-09-30T03:22:44;16.67;;;5.68;;
54384;SDS011;40284;52.878;5.998;2023-09-30T03:25:16;14.82;;;5.78;;
54384;SDS011;40284;52.878;5.998;2023-09-30T03:27:46;19.27;;;6.65;;
54384;SDS011;40284;52.878;5.998;2023-09-30T03:30:12;15.35;;;5.95;;
54384;SDS011;40284;52.878;5.998;2023-09-30T03:32:39;16.20;;;5.90;;
54384;SDS011;40284;52.878;5.998;2023-09-30T03:35:05;19.63;;;6.68;;
54384;SDS011;40284;52.878;5.998;2023-09-30T03:37:32;21.88;;;6.72;;
54384;SDS011;40284;52.878;5.998;2023-09-30T03:39:59;19.02;;;6.53;;
54384;SDS011;40284;52.878;5.998;2023-09-30T03:42:36;15.52;;;6.45;;
54384;SDS011;40284;52.878;5.998;2023-09-30T03:45:04;14.40;;;5.95;;
54384;SDS011;40284;52.878;5.998;2023-09-30T03:47:34;15.73;;;5.75;;
54384;SDS011;40284;52.878;5.998;2023-09-30T03:50:00;18.30;;;6.13;;
54384;SDS011;40284;52.878;5.998;2023-09-30T03:52:28;14.13;;;5.53;;
54384;SDS011;40284;52.878;5.998;2023-09-30T03:54:54;15.32;;;5.93;;
54384;SDS011;40284;52.878;5.998;2023-09-30T03:57:20;14.95;;;6.60;;
54384;SDS011;40284;52.878;5.998;2023-09-30T03:59:46;16.08;;;6.45;;
54384;SDS011;40284;52.878;5.998;2023-09-30T04:02:13;14.75;;;6.55;;
54384;SDS011;40284;52.878;5.998;2023-09-30T04:04:40;18.38;;;6.63;;
54384;SDS011;40284;52.878;5.998;2023-09-30T04:07:06;14.77;;;7.03;;
54384;SDS011;40284;52.878;5.998;2023-09-30T04:09:35;14.38;;;6.53;;
54384;SDS011;40284;52.878;5.998;2023-09-30T04:12:01;15.52;;;6.90;;
54384;SDS011;40284;52.878;5.998;2023-09-30T04:14:27;11.27;;;6.10;;
54384;SDS011;40284;52.878;5.998;2023-09-30T04:16:53;20.13;;;7.60;;
54384;SDS011;40284;52.878;5.998;2023-09-30T04:19:19;16.88;;;7.65;;
54384;SDS011;40284;52.878;5.998;2023-09-30T04:21:46;13.32;;;7.10;;
54384;SDS011;40284;52.878;5.998;2023-09-30T04:24:12;22.75;;;8.60;;
54384;SDS011;40284;52.878;5.998;2023-09-30T04:26:38;12.85;;;7.60;;
54384;SDS011;40284;52.878;5.998;2023-09-30T04:29:05;15.70;;;7.38;;
54384;SDS011;40284;52.878;5.998;2023-09-30T04:31:35;10.90;;;6.68;;
54384;SDS011;40284;52.878;5.998;2023-09-30T04:34:02;20.58;;;7.68;;
54384;SDS011;40284;52.878;5.998;2023-09-30T04:36:30;15.20;;;7.95;;
54384;SDS011;40284;52.878;5.998;2023-09-30T04:38:56;18.15;;;7.88;;
54384;SDS011;40284;52.878;5.998;2023-09-30T04:41:22;20.70;;;9.52;;
54384;SDS011;40284;52.878;5.998;2023-09-30T04:43:50;17.25;;;8.80;;
54384;SDS011;40284;52.878;5.998;2023-09-30T04:46:17;17.38;;;8.57;;
54384;SDS011;40284;52.878;5.998;2023-09-30T04:48:48;23.15;;;8.82;;
54384;SDS011;40284;52.878;5.998;2023-09-30T04:51:17;15.43;;;8.82;;
54384;SDS011;40284;52.878;5.998;2023-09-30T04:53:46;19.48;;;9.25;;
54384;SDS011;40284;52.878;5.998;2023-09-30T04:56:13;21.83;;;10.20;;
54384;SDS011;40284;52.878;5.998;2023-09-30T04:58:39;17.08;;;9.52;;
54384;SDS011;40284;52.878;5.998;2023-09-30T05:01:05;15.38;;;8.90;;
54384;SDS011;40284;52.878;5.998;2023-09-30T05:03:34;22.48;;;10.63;;
54384;SDS011;40284;52.878;5.998;2023-09-30T05:06:00;20.08;;;9.80;;
54384;SDS011;40284;52.878;5.998;2023-09-30T05:08:28;17.23;;;9.85;;
54384;SDS011;40284;52.878;5.998;2023-09-30T05:10:54;17.38;;;9.23;;
54384;SDS011;40284;52.878;5.998;2023-09-30T05:13:21;17.52;;;10.20;;
54384;SDS011;40284;52.878;5.998;2023-09-30T05:15:48;18.90;;;10.15;;
54384;SDS011;40284;52.878;5.998;2023-09-30T05:18:16;15.65;;;9.80;;
54384;SDS011;40284;52.878;5.998;2023-09-30T05:20:42;18.85;;;10.38;;
54384;SDS011;40284;52.878;5.998;2023-09-30T05:23:09;23.20;;;11.20;;
54384;SDS011;40284;52.878;5.998;2023-09-30T05:25:41;17.85;;;10.60;;
54384;SDS011;40284;52.878;5.998;2023-09-30T05:28:08;20.15;;;11.13;;
54384;SDS011;40284;52.878;5.998;2023-09-30T05:30:34;19.02;;;11.00;;
54384;SDS011;40284;52.878;5.998;2023-09-30T05:33:01;21.77;;;11.07;;
54384;SDS011;40284;52.878;5.998;2023-09-30T05:35:28;22.25;;;11.18;;
54384;SDS011;40284;52.878;5.998;2023-09-30T05:37:55;20.95;;;11.35;;
54384;SDS011;40284;52.878;5.998;2023-09-30T05:40:21;20.92;;;12.20;;
54384;SDS011;40284;52.878;5.998;2023-09-30T05:42:52;19.50;;;12.32;;
54384;SDS011;40284;52.878;5.998;2023-09-30T05:45:18;24.55;;;12.38;;
54384;SDS011;40284;52.878;5.998;2023-09-30T05:47:45;22.63;;;12.20;;
54384;SDS011;40284;52.878;5.998;2023-09-30T05:50:11;20.42;;;11.95;;
54384;SDS011;40284;52.878;5.998;2023-09-30T05:52:40;22.85;;;11.13;;
54384;SDS011;40284;52.878;5.998;2023-09-30T05:55:07;20.55;;;12.23;;
54384;SDS011;40284;52.878;5.998;2023-09-30T05:57:33;20.10;;;11.38;;
54384;SDS011;40284;52.878;5.998;2023-09-30T06:00:00;20.45;;;11.68;;
54384;SDS011;40284;52.878;5.998;2023-09-30T06:02:31;22.13;;;12.52;;
54384;SDS011;40284;52.878;5.998;2023-09-30T06:04:57;22.67;;;11.38;;
54384;SDS011;40284;52.878;5.998;2023-09-30T06:07:24;23.60;;;11.80;;
54384;SDS011;40284;52.878;5.998;2023-09-30T06:09:51;22.10;;;11.65;;
54384;SDS011;40284;52.878;5.998;2023-09-30T06:12:19;25.50;;;13.43;;
54384;SDS011;40284;52.878;5.998;2023-09-30T06:14:45;20.08;;;11.60;;
54384;SDS011;40284;52.878;5.998;2023-09-30T06:17:11;21.05;;;11.40;;
54384;SDS011;40284;52.878;5.998;2023-09-30T06:19:37;22.40;;;12.88;;
54384;SDS011;40284;52.878;5.998;2023-09-30T06:22:03;26.35;;;12.18;;
54384;SDS011;40284;52.878;5.998;2023-09-30T06:24:29;21.10;;;12.55;;
54384;SDS011;40284;52.878;5.998;2023-09-30T06:26:55;23.58;;;12.82;;
54384;SDS011;40284;52.878;5.998;2023-09-30T06:29:21;21.63;;;12.90;;
54384;SDS011;40284;52.878;5.998;2023-09-30T06:31:48;21.17;;;11.95;;
54384;SDS011;40284;52.878;5.998;2023-09-30T06:34:14;16.88;;;11.50;;
54384;SDS011;40284;52.878;5.998;2023-09-30T06:36:40;20.30;;;12.05;;
54384;SDS011;40284;52.878;5.998;2023-09-30T06:39:06;25.15;;;12.07;;
54384;SDS011;40284;52.878;5.998;2023-09-30T06:41:33;19.70;;;10.48;;
54384;SDS011;40284;52.878;5.998;2023-09-30T06:44:00;21.63;;;12.05;;
54384;SDS011;40284;52.878;5.998;2023-09-30T06:46:26;25.13;;;11.68;;
54384;SDS011;40284;52.878;5.998;2023-09-30T06:48:52;21.92;;;11.65;;
54384;SDS011;40284;52.878;5.998;2023-09-30T06:51:18;20.90;;;11.80;;
54384;SDS011;40284;52.878;5.998;2023-09-30T06:53:44;19.50;;;12.52;;
54384;SDS011;40284;52.878;5.998;2023-09-30T06:56:11;18.17;;;11.65;;
54384;SDS011;40284;52.878;5.998;2023-09-30T06:58:38;20.48;;;11.90;;
54384;SDS011;40284;52.878;5.998;2023-09-30T07:01:04;19.85;;;11.63;;
54384;SDS011;40284;52.878;5.998;2023-09-30T07:03:30;23.83;;;12.75;;
54384;SDS011;40284;52.878;5.998;2023-09-30T07:05:57;21.70;;;11.98;;
54384;SDS011;40284;52.878;5.998;2023-09-30T07:08:26;20.52;;;11.32;;
54384;SDS011;40284;52.878;5.998;2023-09-30T07:10:54;18.98;;;11.70;;
54384;SDS011;40284;52.878;5.998;2023-09-30T07:13:21;16.10;;;10.82;;
54384;SDS011;40284;52.878;5.998;2023-09-30T07:15:48;22.52;;;11.60;;
54384;SDS011;40284;52.878;5.998;2023-09-30T07:18:14;23.08;;;12.52;;
54384;SDS011;40284;52.878;5.998;2023-09-30T07:20:40;19.83;;;11.48;;
54384;SDS011;40284;52.878;5.998;2023-09-30T07:23:06;27.10;;;11.75;;
54384;SDS011;40284;52.878;5.998;2023-09-30T07:25:34;25.35;;;13.05;;
54384;SDS011;40284;52.878;5.998;2023-09-30T07:28:00;29.80;;;13.38;;
54384;SDS011;40284;52.878;5.998;2023-09-30T07:30:27;21.58;;;11.88;;
54384;SDS011;40284;52.878;5.998;2023-09-30T07:32:53;19.38;;;11.32;;
54384;SDS011;40284;52.878;5.998;2023-09-30T07:35:19;20.75;;;12.43;;
54384;SDS011;40284;52.878;5.998;2023-09-30T07:37:45;19.00;;;11.40;;
54384;SDS011;40284;52.878;5.998;2023-09-30T07:40:11;25.48;;;12.38;;
54384;SDS011;40284;52.878;5.998;2023-09-30T07:42:38;22.65;;;12.63;;
54384;SDS011;40284;52.878;5.998;2023-09-30T07:45:04;27.58;;;12.95;;
54384;SDS011;40284;52.878;5.998;2023-09-30T07:47:30;20.48;;;11.48;;
54384;SDS011;40284;52.878;5.998;2023-09-30T07:49:59;26.90;;;12.05;;
54384;SDS011;40284;52.878;5.998;2023-09-30T07:52:25;24.95;;;12.65;;
54384;SDS011;40284;52.878;5.998;2023-09-30T07:54:51;22.42;;;12.50;;
54384;SDS011;40284;52.878;5.998;2023-09-30T07:57:18;24.80;;;14.23;;
54384;SDS011;40284;52.878;5.998;2023-09-30T07:59:45;20.98;;;12.48;;
54384;SDS011;40284;52.878;5.998;2023-09-30T08:02:11;23.20;;;12.32;;
54384;SDS011;40284;52.878;5.998;2023-09-30T08:04:37;23.73;;;12.73;;
54384;SDS011;40284;52.878;5.998;2023-09-30T08:07:03;26.40;;;12.82;;
54384;SDS011;40284;52.878;5.998;2023-09-30T08:09:29;21.17;;;11.85;;
54384;SDS011;40284;52.878;5.998;2023-09-30T08:11:56;21.27;;;12.20;;
54384;SDS011;40284;52.878;5.998;2023-09-30T08:14:22;23.45;;;14.00;;
54384;SDS011;40284;52.878;5.998;2023-09-30T08:16:48;30.77;;;15.93;;
54384;SDS011;40284;52.878;5.998;2023-09-30T08:19:14;26.63;;;15.82;;
54384;SDS011;40284;52.878;5.998;2023-09-30T08:21:40;27.80;;;17.52;;
54384;SDS011;40284;52.878;5.998;2023-09-30T08:24:06;30.38;;;17.33;;
54384;SDS011;40284;52.878;5.998;2023-09-30T08:26:33;28.40;;;16.52;;
54384;SDS011;40284;52.878;5.998;2023-09-30T08:29:00;28.27;;;16.10;;
54384;SDS011;40284;52.878;5.998;2023-09-30T08:31:27;27.35;;;16.50;;
54384;SDS011;40284;52.878;5.998;2023-09-30T08:33:54;26.90;;;13.68;;
54384;SDS011;40284;52.878;5.998;2023-09-30T08:36:20;27.48;;;14.05;;
54384;SDS011;40284;52.878;5.998;2023-09-30T08:38:46;22.45;;;13.50;;
54384;SDS011;40284;52.878;5.998;2023-09-30T08:41:15;23.77;;;13.25;;
54384;SDS011;40284;52.878;5.998;2023-09-30T08:43:50;25.38;;;12.45;;
54384;SDS011;40284;52.878;5.998;2023-09-30T08:46:17;21.77;;;13.23;;
54384;SDS011;40284;52.878;5.998;2023-09-30T08:48:44;24.52;;;15.77;;
54384;SDS011;40284;52.878;5.998;2023-09-30T08:51:11;25.60;;;15.13;;
54384;SDS011;40284;52.878;5.998;2023-09-30T08:53:37;20.05;;;11.10;;
54384;SDS011;40284;52.878;5.998;2023-09-30T08:56:04;21.92;;;12.80;;
54384;SDS011;40284;52.878;5.998;2023-09-30T08:58:34;22.55;;;13.32;;
54384;SDS011;40284;52.878;5.998;2023-09-30T09:01:00;19.83;;;12.15;;
54384;SDS011;40284;52.878;5.998;2023-09-30T09:03:27;17.88;;;11.57;;
54384;SDS011;40284;52.878;5.998;2023-09-30T09:05:54;20.25;;;11.55;;
54384;SDS011;40284;52.878;5.998;2023-09-30T09:08:27;21.05;;;12.00;;
54384;SDS011;40284;52.878;5.998;2023-09-30T09:10:54;21.58;;;10.32;;
54384;SDS011;40284;52.878;5.998;2023-09-30T09:13:21;19.02;;;10.38;;
54384;SDS011;40284;52.878;5.998;2023-09-30T09:15:47;22.13;;;10.52;;
54384;SDS011;40284;52.878;5.998;2023-09-30T09:18:19;17.15;;;11.02;;
54384;SDS011;40284;52.878;5.998;2023-09-30T09:21:07;16.80;;;8.75;;
54384;SDS011;40284;52.878;5.998;2023-09-30T09:23:38;24.85;;;9.68;;
54384;SDS011;40284;52.878;5.998;2023-09-30T09:26:04;17.67;;;8.85;;
54384;SDS011;40284;52.878;5.998;2023-09-30T09:28:34;21.70;;;9.55;;
54384;SDS011;40284;52.878;5.998;2023-09-30T09:31:01;15.60;;;8.30;;
54384;SDS011;40284;52.878;5.998;2023-09-30T09:33:37;21.80;;;8.82;;
54384;SDS011;40284;52.878;5.998;2023-09-30T09:36:03;17.77;;;8.18;;
54384;SDS011;40284;52.878;5.998;2023-09-30T09:38:43;19.63;;;7.55;;
54384;SDS011;40284;52.878;5.998;2023-09-30T09:41:09;18.33;;;7.95;;
54384;SDS011;40284;52.878;5.998;2023-09-30T09:43:36;15.05;;;7.80;;
54384;SDS011;40284;52.878;5.998;2023-09-30T09:46:07;18.70;;;8.73;;
54384;SDS011;40284;52.878;5.998;2023-09-30T09:48:35;12.80;;;8.35;;
54384;SDS011;40284;52.878;5.998;2023-09-30T09:51:01;19.95;;;8.27;;
54384;SDS011;40284;52.878;5.998;2023-09-30T09:53:30;13.95;;;7.43;;
54384;SDS011;40284;52.878;5.998;2023-09-30T09:56:00;16.23;;;7.60;;
54384;SDS011;40284;52.878;5.998;2023-09-30T09:58:26;17.80;;;7.57;;
54384;SDS011;40284;52.878;5.998;2023-09-30T10:00:56;19.25;;;7.60;;
54384;SDS011;40284;52.878;5.998;2023-09-30T10:03:23;12.77;;;6.82;;
54384;SDS011;40284;52.878;5.998;2023-09-30T10:05:49;16.17;;;7.30;;
54384;SDS011;40284;52.878;5.998;2023-09-30T10:08:16;13.25;;;6.38;;
54384;SDS011;40284;52.878;5.998;2023-09-30T10:10:44;15.60;;;6.57;;
54384;SDS011;40284;52.878;5.998;2023-09-30T10:13:56;9.63;;;4.55;;
54384;SDS011;40284;52.878;5.998;2023-09-30T10:15:56;13.25;;;4.75;;
54384;SDS011;40284;52.878;5.998;2023-09-30T10:18:22;10.32;;;4.28;;
54384;SDS011;40284;52.878;5.998;2023-09-30T10:20:48;11.57;;;4.07;;
54384;SDS011;40284;52.878;5.998;2023-09-30T10:26:13;10.07;;;3.33;;
54384;SDS011;40284;52.878;5.998;2023-09-30T10:28:43;9.40;;;3.10;;
54384;SDS011;40284;52.878;5.998;2023-09-30T10:36:28;11.27;;;4.38;;
54384;SDS011;40284;52.878;5.998;2023-09-30T10:38:54;6.95;;;2.50;;
54384;SDS011;40284;52.878;5.998;2023-09-30T10:46:57;6.40;;;2.72;;
54384;SDS011;40284;52.878;5.998;2023-09-30T10:51:53;8.65;;;2.40;;
54384;SDS011;40284;52.878;5.998;2023-09-30T10:54:23;9.45;;;3.75;;
54384;SDS011;40284;52.878;5.998;2023-09-30T10:56:49;13.00;;;2.63;;
54384;SDS011;40284;52.878;5.998;2023-09-30T10:59:22;9.43;;;2.28;;
54384;SDS011;40284;52.878;5.998;2023-09-30T11:01:49;6.25;;;2.08;;
54384;SDS011;40284;52.878;5.998;2023-09-30T11:04:15;9.60;;;2.88;;
54384;SDS011;40284;52.878;5.998;2023-09-30T11:06:43;8.65;;;2.10;;
54384;SDS011;40284;52.878;5.998;2023-09-30T11:09:10;7.85;;;1.80;;
54384;SDS011;40284;52.878;5.998;2023-09-30T11:11:42;4.55;;;1.70;;
54384;SDS011;40284;52.878;5.998;2023-09-30T11:14:20;7.55;;;2.65;;
54384;SDS011;40284;52.878;5.998;2023-09-30T11:16:46;7.88;;;2.22;;
54384;SDS011;40284;52.878;5.998;2023-09-30T11:19:13;7.30;;;2.00;;
54384;SDS011;40284;52.878;5.998;2023-09-30T11:21:43;6.68;;;1.98;;
54384;SDS011;40284;52.878;5.998;2023-09-30T11:24:10;5.00;;;1.65;;
54384;SDS011;40284;52.878;5.998;2023-09-30T11:26:36;6.63;;;1.92;;
54384;SDS011;40284;52.878;5.998;2023-09-30T11:29:06;6.38;;;1.95;;
54384;SDS011;40284;52.878;5.998;2023-09-30T11:31:32;7.65;;;2.05;;
54384;SDS011;40284;52.878;5.998;2023-09-30T11:33:59;5.43;;;2.03;;
54384;SDS011;40284;52.878;5.998;2023-09-30T11:36:29;11.77;;;2.60;;
54384;SDS011;40284;52.878;5.998;2023-09-30T11:38:56;8.48;;;2.00;;
54384;SDS011;40284;52.878;5.998;2023-09-30T11:41:22;5.78;;;2.28;;
54384;SDS011;40284;52.878;5.998;2023-09-30T11:43:58;6.47;;;2.20;;
54384;SDS011;40284;52.878;5.998;2023-09-30T11:46:25;5.20;;;1.90;;
54384;SDS011;40284;52.878;5.998;2023-09-30T11:49:02;11.27;;;2.50;;
54384;SDS011;40284;52.878;5.998;2023-09-30T11:51:34;6.22;;;2.05;;
54384;SDS011;40284;52.878;5.998;2023-09-30T11:54:11;9.30;;;2.00;;
54384;SDS011;40284;52.878;5.998;2023-09-30T11:56:37;6.57;;;2.35;;
54384;SDS011;40284;52.878;5.998;2023-09-30T11:59:03;13.90;;;2.85;;
54384;SDS011;40284;52.878;5.998;2023-09-30T12:01:29;6.75;;;2.13;;
54384;SDS011;40284;52.878;5.998;2023-09-30T12:03:58;7.70;;;2.90;;
54384;SDS011;40284;52.878;5.998;2023-09-30T12:06:25;6.43;;;1.88;;
54384;SDS011;40284;52.878;5.998;2023-09-30T12:08:51;8.95;;;2.35;;
54384;SDS011;40284;52.878;5.998;2023-09-30T12:11:18;7.82;;;2.10;;
54384;SDS011;40284;52.878;5.998;2023-09-30T12:13:44;8.25;;;2.15;;
54384;SDS011;40284;52.878;5.998;2023-09-30T12:16:13;10.88;;;2.00;;
54384;SDS011;40284;52.878;5.998;2023-09-30T12:18:39;6.15;;;1.90;;
54384;SDS011;40284;52.878;5.998;2023-09-30T12:21:07;7.03;;;2.33;;
54384;SDS011;40284;52.878;5.998;2023-09-30T12:23:34;9.07;;;1.90;;
54384;SDS011;40284;52.878;5.998;2023-09-30T12:26:00;7.35;;;1.83;;
54384;SDS011;40284;52.878;5.998;2023-09-30T12:28:30;9.57;;;2.30;;
54384;SDS011;40284;52.878;5.998;2023-09-30T12:30:57;8.25;;;1.90;;
54384;SDS011;40284;52.878;5.998;2023-09-30T12:33:23;7.82;;;2.17;;
54384;SDS011;40284;52.878;5.998;2023-09-30T12:35:49;6.65;;;2.75;;
54384;SDS011;40284;52.878;5.998;2023-09-30T12:38:16;6.57;;;1.95;;
54384;SDS011;40284;52.878;5.998;2023-09-30T12:40:42;5.57;;;2.05;;
54384;SDS011;40284;52.878;5.998;2023-09-30T12:43:09;11.82;;;2.65;;
54384;SDS011;40284;52.878;5.998;2023-09-30T12:45:35;10.65;;;2.25;;
54384;SDS011;40284;52.878;5.998;2023-09-30T12:48:03;10.25;;;2.55;;
54384;SDS011;40284;52.878;5.998;2023-09-30T12:50:29;6.05;;;2.35;;
54384;SDS011;40284;52.878;5.998;2023-09-30T12:52:56;7.30;;;2.15;;
54384;SDS011;40284;52.878;5.998;2023-09-30T12:55:21;5.20;;;1.98;;
54384;SDS011;40284;52.878;5.998;2023-09-30T12:57:47;6.07;;;2.47;;
54384;SDS011;40284;52.878;5.998;2023-09-30T13:00:14;7.03;;;1.83;;
54384;SDS011;40284;52.878;5.998;2023-09-30T13:02:41;12.30;;;2.80;;
54384;SDS011;40284;52.878;5.998;2023-09-30T13:05:08;9.60;;;2.22;;
54384;SDS011;40284;52.878;5.998;2023-09-30T13:07:34;10.75;;;2.75;;
54384;SDS011;40284;52.878;5.998;2023-09-30T13:10:00;6.97;;;2.10;;
54384;SDS011;40284;52.878;5.998;2023-09-30T13:12:26;7.43;;;2.33;;
54384;SDS011;40284;52.878;5.998;2023-09-30T13:14:53;8.20;;;2.38;;
54384;SDS011;40284;52.878;5.998;2023-09-30T13:17:21;5.88;;;2.45;;
54384;SDS011;40284;52.878;5.998;2023-09-30T13:19:49;6.55;;;2.10;;
54384;SDS011;40284;52.878;5.998;2023-09-30T13:22:16;7.80;;;2.30;;
54384;SDS011;40284;52.878;5.998;2023-09-30T13:24:42;7.40;;;2.35;;
54384;SDS011;40284;52.878;5.998;2023-09-30T13:27:08;9.45;;;2.13;;
54384;SDS011;40284;52.878;5.998;2023-09-30T13:29:34;12.27;;;3.13;;
54384;SDS011;40284;52.878;5.998;2023-09-30T13:32:01;8.48;;;2.05;;
54384;SDS011;40284;52.878;5.998;2023-09-30T13:34:29;9.05;;;2.00;;
54384;SDS011;40284;52.878;5.998;2023-09-30T13:36:55;6.03;;;2.00;;
54384;SDS011;40284;52.878;5.998;2023-09-30T13:39:22;9.57;;;2.35;;
54384;SDS011;40284;52.878;5.998;2023-09-30T13:41:50;8.35;;;2.55;;
54384;SDS011;40284;52.878;5.998;2023-09-30T13:44:16;5.65;;;1.75;;
54384;SDS011;40284;52.878;5.998;2023-09-30T13:46:43;8.13;;;1.95;;
54384;SDS011;40284;52.878;5.998;2023-09-30T13:49:10;8.10;;;2.00;;
54384;SDS011;40284;52.878;5.998;2023-09-30T13:51:36;9.30;;;2.17;;
54384;SDS011;40284;52.878;5.998;2023-09-30T13:54:04;6.13;;;2.10;;
54384;SDS011;40284;52.878;5.998;2023-09-30T13:56:32;8.40;;;2.38;;
54384;SDS011;40284;52.878;5.998;2023-09-30T13:58:58;8.13;;;2.47;;
54384;SDS011;40284;52.878;5.998;2023-09-30T14:01:25;11.52;;;1.80;;
54384;SDS011;40284;52.878;5.998;2023-09-30T14:03:52;8.32;;;2.30;;
54384;SDS011;40284;52.878;5.998;2023-09-30T14:06:22;7.47;;;2.00;;
54384;SDS011;40284;52.878;5.998;2023-09-30T14:08:48;7.00;;;2.05;;
54384;SDS011;40284;52.878;5.998;2023-09-30T14:11:15;8.05;;;2.28;;
54384;SDS011;40284;52.878;5.998;2023-09-30T14:13:41;7.05;;;2.10;;
54384;SDS011;40284;52.878;5.998;2023-09-30T14:16:10;10.98;;;2.03;;
54384;SDS011;40284;52.878;5.998;2023-09-30T14:18:36;8.15;;;1.98;;
54384;SDS011;40284;52.878;5.998;2023-09-30T14:21:04;8.43;;;2.30;;
54384;SDS011;40284;52.878;5.998;2023-09-30T14:23:31;7.97;;;1.83;;
54384;SDS011;40284;52.878;5.998;2023-09-30T14:25:57;10.90;;;2.92;;
54384;SDS011;40284;52.878;5.998;2023-09-30T14:28:24;9.20;;;2.42;;
54384;SDS011;40284;52.878;5.998;2023-09-30T14:30:50;8.43;;;1.92;;
54384;SDS011;40284;52.878;5.998;2023-09-30T14:33:17;9.73;;;2.28;;
54384;SDS011;40284;52.878;5.998;2023-09-30T14:35:44;8.55;;;2.33;;
54384;SDS011;40284;52.878;5.998;2023-09-30T14:38:11;8.13;;;2.00;;
54384;SDS011;40284;52.878;5.998;2023-09-30T14:40:37;6.68;;;2.22;;
54384;SDS011;40284;52.878;5.998;2023-09-30T14:43:07;13.02;;;2.97;;
54384;SDS011;40284;52.878;5.998;2023-09-30T14:45:41;9.73;;;2.53;;
54384;SDS011;40284;52.878;5.998;2023-09-30T14:48:07;6.93;;;1.93;;
54384;SDS011;40284;52.878;5.998;2023-09-30T14:50:34;9.88;;;2.55;;
54384;SDS011;40284;52.878;5.998;2023-09-30T14:53:02;6.95;;;2.00;;